This is the latest recevied weather packets stored in our database for station/object WD4LSS. If no packets are shown the sender has not sent any weather packets the latest 10 day(s).
| Time | Temp. | Humidity | Pressure | Rain* | Wind** | Luminosity | Snow |
|---|---|---|---|---|---|---|---|
| 1777257617 | 12.22° C | 81% | 1020.8 hPa | 0 mm | - | - | - |
| 1777257337 | 12.22° C | 81% | 1020.8 hPa | 0 mm | - | - | - |
| 1777257037 | 12.78° C | 81% | 1020.7 hPa | 0 mm | - | - | - |
| 1777256717 | 12.78° C | 80% | 1020.6 hPa | 0 mm | - | - | - |
| 1777256437 | 12.78° C | 80% | 1020.7 hPa | 0 mm | - | - | - |
| 1777253117 | 13.89° C | 79% | 1019.8 hPa | 0 mm | - | - | - |
| 1777251017 | 14.44° C | 78% | 1019 hPa | 0 mm | - | - | - |
| 1777249817 | 15° C | 78% | 1018.5 hPa | 0 mm | - | - | - |
| 1777248017 | 15.56° C | 77% | 1018.1 hPa | 0 mm | - | - | - |
| 1777245317 | 16.67° C | 72% | 1017.4 hPa | 0 mm | - | - | - |
| 1777244737 | 16.67° C | 73% | 1017.5 hPa | 0 mm | - | - | - |
| 1777244117 | 16.67° C | 73% | 1017.3 hPa | 0 mm | - | - | - |
| 1777240817 | 17.78° C | 70% | 1016.9 hPa | 0 mm | - | - | - |
| 1777238717 | 18.33° C | 70% | 1016.6 hPa | 0 mm | - | - | - |
| 1777237516 | 18.89° C | 70% | 1016.4 hPa | 0 mm | - | - | - |
| 1777236617 | 18.33° C | 71% | 1016.4 hPa | 0 mm | - | - | - |
| 1777235116 | 18.33° C | 73% | 1016.1 hPa | 0 mm | - | - | - |
| 1777233616 | 18.33° C | 73% | 1016.2 hPa | 0 mm | - | - | - |
| 1777232417 | 18.33° C | 73% | 1016.1 hPa | 0 mm | - | - | - |
| 1777231816 | 18.89° C | 73% | 1016.1 hPa | 0 mm | - | - | - |
| 1777230316 | 18.33° C | 73% | 1016.2 hPa | 0 mm | - | - | - |
| 1777230016 | 18.89° C | 74% | 1016.3 hPa | 0 mm | - | - | - |
| 1777229716 | 18.89° C | 72% | 1016.3 hPa | 0 mm | - | - | - |
| 1777226716 | 18.33° C | 79% | 1016.2 hPa | 0 mm | - | - | - |
| 1777226436 | 17.78° C | 79% | 1016.1 hPa | 0 mm | - | - | - |
* Rain latest hour (hover to see other rain measurements)
** Current wind speed in m/s (hover to see current wind gust speed)